sensor_id;sensor_type;location;lat;lon;timestamp;temperature;humidity
18575;DHT22;9417;16.484;102.872;2022-08-03T00:00:11;26.70;99.00
18575;DHT22;9417;16.484;102.872;2022-08-03T00:02:20;26.70;98.90
18575;DHT22;9417;16.484;102.872;2022-08-03T00:04:29;26.90;98.60
18575;DHT22;9417;16.484;102.872;2022-08-03T00:06:37;27.00;97.90
18575;DHT22;9417;16.484;102.872;2022-08-03T00:08:45;27.10;96.90
18575;DHT22;9417;16.484;102.872;2022-08-03T00:10:52;27.10;96.00
18575;DHT22;9417;16.484;102.872;2022-08-03T00:13:00;27.10;94.90
18575;DHT22;9417;16.484;102.872;2022-08-03T00:15:08;27.10;94.50
18575;DHT22;9417;16.484;102.872;2022-08-03T00:17:19;27.20;94.20
18575;DHT22;9417;16.484;102.872;2022-08-03T00:19:28;27.20;94.20
18575;DHT22;9417;16.484;102.872;2022-08-03T00:21:36;27.30;94.20
18575;DHT22;9417;16.484;102.872;2022-08-03T00:23:43;27.40;93.90
18575;DHT22;9417;16.484;102.872;2022-08-03T00:25:55;27.50;93.50
18575;DHT22;9417;16.484;102.872;2022-08-03T00:28:02;27.50;93.10
18575;DHT22;9417;16.484;102.872;2022-08-03T00:30:11;27.60;92.80
18575;DHT22;9417;16.484;102.872;2022-08-03T00:32:20;27.70;92.30
18575;DHT22;9417;16.484;102.872;2022-08-03T00:34:29;27.70;92.00
18575;DHT22;9417;16.484;102.872;2022-08-03T00:36:56;27.70;91.70
18575;DHT22;9417;16.484;102.872;2022-08-03T00:39:04;27.70;91.50
18575;DHT22;9417;16.484;102.872;2022-08-03T00:41:11;27.70;91.50
18575;DHT22;9417;16.484;102.872;2022-08-03T00:43:18;27.70;91.50
18575;DHT22;9417;16.484;102.872;2022-08-03T00:45:27;27.80;91.40
18575;DHT22;9417;16.484;102.872;2022-08-03T00:47:34;27.90;91.30
18575;DHT22;9417;16.484;102.872;2022-08-03T00:49:43;28.00;91.00
18575;DHT22;9417;16.484;102.872;2022-08-03T00:51:50;28.10;90.40
18575;DHT22;9417;16.484;102.872;2022-08-03T00:53:58;28.10;90.20
18575;DHT22;9417;16.484;102.872;2022-08-03T00:56:05;28.20;90.00
18575;DHT22;9417;16.484;102.872;2022-08-03T00:58:13;28.20;90.00
18575;DHT22;9417;16.484;102.872;2022-08-03T01:00:23;28.20;90.00
18575;DHT22;9417;16.484;102.872;2022-08-03T01:02:31;28.20;90.10
18575;DHT22;9417;16.484;102.872;2022-08-03T01:04:38;28.10;90.20
18575;DHT22;9417;16.484;102.872;2022-08-03T01:06:51;28.10;90.30
18575;DHT22;9417;16.484;102.872;2022-08-03T01:09:02;28.00;90.30
18575;DHT22;9417;16.484;102.872;2022-08-03T01:11:16;28.00;90.50
18575;DHT22;9417;16.484;102.872;2022-08-03T01:13:30;27.90;90.70
18575;DHT22;9417;16.484;102.872;2022-08-03T01:16:05;27.90;90.80
18575;DHT22;9417;16.484;102.872;2022-08-03T01:18:17;27.90;91.00
18575;DHT22;9417;16.484;102.872;2022-08-03T01:20:28;27.80;91.10
18575;DHT22;9417;16.484;102.872;2022-08-03T01:22:59;27.90;91.20
18575;DHT22;9417;16.484;102.872;2022-08-03T01:25:14;27.90;91.20
18575;DHT22;9417;16.484;102.872;2022-08-03T01:27:30;27.90;91.10
18575;DHT22;9417;16.484;102.872;2022-08-03T01:29:59;27.90;90.90
18575;DHT22;9417;16.484;102.872;2022-08-03T01:32:11;27.90;90.90
18575;DHT22;9417;16.484;102.872;2022-08-03T01:34:44;28.00;90.80
18575;DHT22;9417;16.484;102.872;2022-08-03T01:36:53;28.00;90.60
18575;DHT22;9417;16.484;102.872;2022-08-03T01:39:04;28.00;90.60
18575;DHT22;9417;16.484;102.872;2022-08-03T01:41:16;28.00;90.60
18575;DHT22;9417;16.484;102.872;2022-08-03T01:43:26;28.00;90.60
18575;DHT22;9417;16.484;102.872;2022-08-03T01:45:55;28.10;90.60
18575;DHT22;9417;16.484;102.872;2022-08-03T01:48:05;28.10;90.40
18575;DHT22;9417;16.484;102.872;2022-08-03T01:50:13;28.10;90.20
18575;DHT22;9417;16.484;102.872;2022-08-03T01:52:21;28.10;90.00
18575;DHT22;9417;16.484;102.872;2022-08-03T01:54:29;28.10;89.90
18575;DHT22;9417;16.484;102.872;2022-08-03T01:56:37;28.10;89.80
18575;DHT22;9417;16.484;102.872;2022-08-03T01:58:48;28.20;89.70
18575;DHT22;9417;16.484;102.872;2022-08-03T02:00:58;28.20;89.70
18575;DHT22;9417;16.484;102.872;2022-08-03T02:03:07;28.20;89.60
18575;DHT22;9417;16.484;102.872;2022-08-03T02:05:15;28.20;89.50
18575;DHT22;9417;16.484;102.872;2022-08-03T02:07:24;28.20;89.60
18575;DHT22;9417;16.484;102.872;2022-08-03T02:09:33;28.40;89.40
18575;DHT22;9417;16.484;102.872;2022-08-03T02:11:43;28.50;88.80
18575;DHT22;9417;16.484;102.872;2022-08-03T02:13:51;28.60;88.50
18575;DHT22;9417;16.484;102.872;2022-08-03T02:16:02;28.70;88.30
18575;DHT22;9417;16.484;102.872;2022-08-03T02:18:11;28.80;87.80
18575;DHT22;9417;16.484;102.872;2022-08-03T02:20:19;28.90;87.30
18575;DHT22;9417;16.484;102.872;2022-08-03T02:22:27;29.00;87.00
18575;DHT22;9417;16.484;102.872;2022-08-03T02:24:35;29.10;86.60
18575;DHT22;9417;16.484;102.872;2022-08-03T02:26:42;29.20;86.20
18575;DHT22;9417;16.484;102.872;2022-08-03T02:28:52;29.30;85.70
18575;DHT22;9417;16.484;102.872;2022-08-03T02:31:04;29.50;85.30
18575;DHT22;9417;16.484;102.872;2022-08-03T02:33:11;29.60;84.80
18575;DHT22;9417;16.484;102.872;2022-08-03T02:35:23;29.60;84.20
18575;DHT22;9417;16.484;102.872;2022-08-03T02:37:35;29.60;84.30
18575;DHT22;9417;16.484;102.872;2022-08-03T02:39:49;29.50;84.40
18575;DHT22;9417;16.484;102.872;2022-08-03T02:41:58;29.50;84.60
18575;DHT22;9417;16.484;102.872;2022-08-03T02:44:10;29.30;84.80
18575;DHT22;9417;16.484;102.872;2022-08-03T02:46:21;29.20;85.20
18575;DHT22;9417;16.484;102.872;2022-08-03T02:48:31;29.10;85.60
18575;DHT22;9417;16.484;102.872;2022-08-03T02:50:39;29.00;85.90
18575;DHT22;9417;16.484;102.872;2022-08-03T02:52:48;29.00;86.10
18575;DHT22;9417;16.484;102.872;2022-08-03T02:54:59;29.00;86.20
18575;DHT22;9417;16.484;102.872;2022-08-03T02:57:09;28.90;86.10
18575;DHT22;9417;16.484;102.872;2022-08-03T02:59:18;28.90;86.30
18575;DHT22;9417;16.484;102.872;2022-08-03T03:01:28;29.00;86.40
18575;DHT22;9417;16.484;102.872;2022-08-03T03:03:37;29.30;86.20
18575;DHT22;9417;16.484;102.872;2022-08-03T03:05:48;29.50;85.60
18575;DHT22;9417;16.484;102.872;2022-08-03T03:08:00;29.80;84.60
18575;DHT22;9417;16.484;102.872;2022-08-03T03:10:21;30.00;83.70
18575;DHT22;9417;16.484;102.872;2022-08-03T03:12:30;30.20;80.80
18575;DHT22;9417;16.484;102.872;2022-08-03T03:14:38;30.30;81.00
18575;DHT22;9417;16.484;102.872;2022-08-03T03:16:48;30.50;81.20
18575;DHT22;9417;16.484;102.872;2022-08-03T03:19:01;30.60;80.40
18575;DHT22;9417;16.484;102.872;2022-08-03T03:21:09;30.80;80.00
18575;DHT22;9417;16.484;102.872;2022-08-03T03:23:17;30.90;80.00
18575;DHT22;9417;16.484;102.872;2022-08-03T03:25:26;31.00;79.70
18575;DHT22;9417;16.484;102.872;2022-08-03T03:27:34;31.10;79.30
18575;DHT22;9417;16.484;102.872;2022-08-03T03:29:41;31.10;78.00
18575;DHT22;9417;16.484;102.872;2022-08-03T03:31:51;31.10;78.50
18575;DHT22;9417;16.484;102.872;2022-08-03T03:33:59;31.00;78.70
18575;DHT22;9417;16.484;102.872;2022-08-03T03:36:07;31.00;78.60
18575;DHT22;9417;16.484;102.872;2022-08-03T03:38:15;31.00;78.50
18575;DHT22;9417;16.484;102.872;2022-08-03T03:40:23;31.10;78.40
18575;DHT22;9417;16.484;102.872;2022-08-03T03:42:30;31.30;77.60
18575;DHT22;9417;16.484;102.872;2022-08-03T03:44:38;31.30;76.50
18575;DHT22;9417;16.484;102.872;2022-08-03T03:46:45;31.20;76.40
18575;DHT22;9417;16.484;102.872;2022-08-03T03:48:54;31.00;76.50
18575;DHT22;9417;16.484;102.872;2022-08-03T03:51:02;30.90;77.50
18575;DHT22;9417;16.484;102.872;2022-08-03T03:53:10;30.80;78.10
18575;DHT22;9417;16.484;102.872;2022-08-03T03:55:19;30.70;78.70
18575;DHT22;9417;16.484;102.872;2022-08-03T03:57:26;30.70;79.10
18575;DHT22;9417;16.484;102.872;2022-08-03T03:59:37;30.80;79.20
18575;DHT22;9417;16.484;102.872;2022-08-03T04:01:45;31.00;77.30
18575;DHT22;9417;16.484;102.872;2022-08-03T04:04:04;31.00;77.30
18575;DHT22;9417;16.484;102.872;2022-08-03T04:06:24;30.90;75.00
18575;DHT22;9417;16.484;102.872;2022-08-03T04:08:48;30.70;75.80
18575;DHT22;9417;16.484;102.872;2022-08-03T04:11:16;30.60;76.70
18575;DHT22;9417;16.484;102.872;2022-08-03T04:13:37;30.60;78.10
18575;DHT22;9417;16.484;102.872;2022-08-03T04:15:47;30.50;78.90
18575;DHT22;9417;16.484;102.872;2022-08-03T04:17:57;30.60;79.10
18575;DHT22;9417;16.484;102.872;2022-08-03T04:20:08;30.60;78.50
18575;DHT22;9417;16.484;102.872;2022-08-03T04:22:17;30.60;77.00
18575;DHT22;9417;16.484;102.872;2022-08-03T04:24:33;30.80;76.50
18575;DHT22;9417;16.484;102.872;2022-08-03T04:26:43;30.90;76.30
18575;DHT22;9417;16.484;102.872;2022-08-03T04:28:55;31.20;75.40
18575;DHT22;9417;16.484;102.872;2022-08-03T04:31:04;31.30;76.30
18575;DHT22;9417;16.484;102.872;2022-08-03T04:33:12;31.30;76.40
18575;DHT22;9417;16.484;102.872;2022-08-03T04:35:24;31.20;76.50
18575;DHT22;9417;16.484;102.872;2022-08-03T04:37:55;31.10;76.60
18575;DHT22;9417;16.484;102.872;2022-08-03T04:40:07;30.90;76.80
18575;DHT22;9417;16.484;102.872;2022-08-03T04:42:15;30.80;77.00
18575;DHT22;9417;16.484;102.872;2022-08-03T04:44:24;30.70;77.30
18575;DHT22;9417;16.484;102.872;2022-08-03T04:46:36;30.70;77.50
18575;DHT22;9417;16.484;102.872;2022-08-03T04:48:53;30.70;77.00
18575;DHT22;9417;16.484;102.872;2022-08-03T04:51:03;30.90;76.20
18575;DHT22;9417;16.484;102.872;2022-08-03T04:53:11;31.10;76.20
18575;DHT22;9417;16.484;102.872;2022-08-03T04:55:25;31.20;75.20
18575;DHT22;9417;16.484;102.872;2022-08-03T04:57:33;31.50;74.30
18575;DHT22;9417;16.484;102.872;2022-08-03T04:59:40;31.70;74.30
18575;DHT22;9417;16.484;102.872;2022-08-03T05:01:48;31.90;72.50
18575;DHT22;9417;16.484;102.872;2022-08-03T05:03:55;32.00;72.30
18575;DHT22;9417;16.484;102.872;2022-08-03T05:06:04;32.10;72.60
18575;DHT22;9417;16.484;102.872;2022-08-03T05:08:14;32.00;71.70
18575;DHT22;9417;16.484;102.872;2022-08-03T05:10:30;32.00;72.60
18575;DHT22;9417;16.484;102.872;2022-08-03T05:12:38;31.80;72.50
18575;DHT22;9417;16.484;102.872;2022-08-03T05:14:45;31.70;72.40
18575;DHT22;9417;16.484;102.872;2022-08-03T05:16:52;31.60;72.80
18575;DHT22;9417;16.484;102.872;2022-08-03T05:19:00;31.50;73.40
18575;DHT22;9417;16.484;102.872;2022-08-03T05:21:09;31.40;73.70
18575;DHT22;9417;16.484;102.872;2022-08-03T05:23:17;31.30;74.10
18575;DHT22;9417;16.484;102.872;2022-08-03T05:25:25;31.20;74.30
18575;DHT22;9417;16.484;102.872;2022-08-03T05:27:33;31.00;75.00
18575;DHT22;9417;16.484;102.872;2022-08-03T05:29:40;30.90;75.20
18575;DHT22;9417;16.484;102.872;2022-08-03T05:31:47;30.90;75.70
18575;DHT22;9417;16.484;102.872;2022-08-03T05:33:55;30.90;75.80
18575;DHT22;9417;16.484;102.872;2022-08-03T05:36:03;30.90;75.70
18575;DHT22;9417;16.484;102.872;2022-08-03T05:38:12;30.90;75.90
18575;DHT22;9417;16.484;102.872;2022-08-03T05:40:31;31.00;76.00
18575;DHT22;9417;16.484;102.872;2022-08-03T05:42:39;31.00;76.10
18575;DHT22;9417;16.484;102.872;2022-08-03T05:44:47;31.10;75.80
18575;DHT22;9417;16.484;102.872;2022-08-03T05:46:54;31.20;75.40
18575;DHT22;9417;16.484;102.872;2022-08-03T05:49:01;31.20;75.10
18575;DHT22;9417;16.484;102.872;2022-08-03T05:51:09;31.30;74.90
18575;DHT22;9417;16.484;102.872;2022-08-03T05:53:19;31.30;75.40
18575;DHT22;9417;16.484;102.872;2022-08-03T05:55:26;31.20;75.90
18575;DHT22;9417;16.484;102.872;2022-08-03T05:57:34;31.10;76.00
18575;DHT22;9417;16.484;102.872;2022-08-03T05:59:41;31.20;76.10
18575;DHT22;9417;16.484;102.872;2022-08-03T06:02:01;31.10;76.00
18575;DHT22;9417;16.484;102.872;2022-08-03T06:04:09;31.10;76.20
18575;DHT22;9417;16.484;102.872;2022-08-03T06:06:16;31.00;76.40
18575;DHT22;9417;16.484;102.872;2022-08-03T06:08:26;31.00;76.30
18575;DHT22;9417;16.484;102.872;2022-08-03T06:10:33;31.00;76.90
18575;DHT22;9417;16.484;102.872;2022-08-03T06:12:41;31.00;77.10
18575;DHT22;9417;16.484;102.872;2022-08-03T06:14:51;31.00;77.50
18575;DHT22;9417;16.484;102.872;2022-08-03T06:16:58;31.00;77.50
18575;DHT22;9417;16.484;102.872;2022-08-03T06:19:06;31.10;77.20
18575;DHT22;9417;16.484;102.872;2022-08-03T06:21:13;31.00;77.20
18575;DHT22;9417;16.484;102.872;2022-08-03T06:23:21;31.00;77.70
18575;DHT22;9417;16.484;102.872;2022-08-03T06:25:50;31.00;78.50
18575;DHT22;9417;16.484;102.872;2022-08-03T06:27:58;31.10;78.20
18575;DHT22;9417;16.484;102.872;2022-08-03T06:30:06;31.10;77.60
18575;DHT22;9417;16.484;102.872;2022-08-03T06:32:14;31.00;76.90
18575;DHT22;9417;16.484;102.872;2022-08-03T06:34:22;31.00;77.00
18575;DHT22;9417;16.484;102.872;2022-08-03T06:36:37;30.90;77.10
18575;DHT22;9417;16.484;102.872;2022-08-03T06:38:45;30.90;77.10
18575;DHT22;9417;16.484;102.872;2022-08-03T06:40:54;30.80;76.80
18575;DHT22;9417;16.484;102.872;2022-08-03T06:43:02;30.70;76.30
18575;DHT22;9417;16.484;102.872;2022-08-03T06:45:15;30.70;76.90
18575;DHT22;9417;16.484;102.872;2022-08-03T06:47:26;30.70;77.10
18575;DHT22;9417;16.484;102.872;2022-08-03T06:49:33;30.70;77.30
18575;DHT22;9417;16.484;102.872;2022-08-03T06:51:40;30.80;77.70
18575;DHT22;9417;16.484;102.872;2022-08-03T06:54:08;30.90;78.40
18575;DHT22;9417;16.484;102.872;2022-08-03T06:56:17;30.90;79.00
18575;DHT22;9417;16.484;102.872;2022-08-03T06:58:25;31.00;79.00
18575;DHT22;9417;16.484;102.872;2022-08-03T07:00:33;31.20;78.80
18575;DHT22;9417;16.484;102.872;2022-08-03T07:02:40;31.30;77.70
18575;DHT22;9417;16.484;102.872;2022-08-03T07:04:50;31.40;77.20
18575;DHT22;9417;16.484;102.872;2022-08-03T07:06:57;31.30;76.60
18575;DHT22;9417;16.484;102.872;2022-08-03T07:09:05;31.40;76.80
18575;DHT22;9417;16.484;102.872;2022-08-03T07:11:12;31.40;76.70
18575;DHT22;9417;16.484;102.872;2022-08-03T07:13:22;31.50;76.20
18575;DHT22;9417;16.484;102.872;2022-08-03T07:15:29;31.50;75.30
18575;DHT22;9417;16.484;102.872;2022-08-03T07:17:57;31.70;75.40
18575;DHT22;9417;16.484;102.872;2022-08-03T07:20:05;32.00;75.00
18575;DHT22;9417;16.484;102.872;2022-08-03T07:22:13;32.00;73.50
18575;DHT22;9417;16.484;102.872;2022-08-03T07:24:21;32.10;74.00
18575;DHT22;9417;16.484;102.872;2022-08-03T07:26:30;32.20;74.00
18575;DHT22;9417;16.484;102.872;2022-08-03T07:28:40;32.20;74.00
18575;DHT22;9417;16.484;102.872;2022-08-03T07:30:47;32.20;74.30
18575;DHT22;9417;16.484;102.872;2022-08-03T07:32:54;32.10;74.60
18575;DHT22;9417;16.484;102.872;2022-08-03T07:35:02;32.00;75.00
18575;DHT22;9417;16.484;102.872;2022-08-03T07:37:11;32.00;75.50
18575;DHT22;9417;16.484;102.872;2022-08-03T07:39:19;31.90;75.60
18575;DHT22;9417;16.484;102.872;2022-08-03T07:41:26;31.90;75.20
18575;DHT22;9417;16.484;102.872;2022-08-03T07:43:33;31.80;75.30
18575;DHT22;9417;16.484;102.872;2022-08-03T07:45:43;31.80;75.60
18575;DHT22;9417;16.484;102.872;2022-08-03T07:47:50;31.80;75.70
18575;DHT22;9417;16.484;102.872;2022-08-03T07:49:57;31.80;75.50
18575;DHT22;9417;16.484;102.872;2022-08-03T07:52:04;32.00;75.40
18575;DHT22;9417;16.484;102.872;2022-08-03T07:54:31;32.10;75.70
18575;DHT22;9417;16.484;102.872;2022-08-03T07:56:38;32.20;75.80
18575;DHT22;9417;16.484;102.872;2022-08-03T07:58:45;32.20;72.90
18575;DHT22;9417;16.484;102.872;2022-08-03T08:00:54;32.00;73.00
18575;DHT22;9417;16.484;102.872;2022-08-03T08:03:02;31.90;72.70
18575;DHT22;9417;16.484;102.872;2022-08-03T08:05:10;31.70;75.40
18575;DHT22;9417;16.484;102.872;2022-08-03T08:07:18;31.60;76.50
18575;DHT22;9417;16.484;102.872;2022-08-03T08:09:25;31.40;76.90
18575;DHT22;9417;16.484;102.872;2022-08-03T08:11:34;31.30;76.90
18575;DHT22;9417;16.484;102.872;2022-08-03T08:13:42;31.30;77.20
18575;DHT22;9417;16.484;102.872;2022-08-03T08:15:50;31.30;78.00
18575;DHT22;9417;16.484;102.872;2022-08-03T08:18:00;31.40;76.90
18575;DHT22;9417;16.484;102.872;2022-08-03T08:20:09;31.40;76.40
18575;DHT22;9417;16.484;102.872;2022-08-03T08:22:20;31.60;76.70
18575;DHT22;9417;16.484;102.872;2022-08-03T08:24:33;31.60;75.40
18575;DHT22;9417;16.484;102.872;2022-08-03T08:26:42;31.60;75.40
18575;DHT22;9417;16.484;102.872;2022-08-03T08:28:49;31.70;76.10
18575;DHT22;9417;16.484;102.872;2022-08-03T08:30:56;31.70;75.20
18575;DHT22;9417;16.484;102.872;2022-08-03T08:33:05;31.70;75.40
18575;DHT22;9417;16.484;102.872;2022-08-03T08:35:26;31.70;74.40
18575;DHT22;9417;16.484;102.872;2022-08-03T08:37:33;31.50;74.90
18575;DHT22;9417;16.484;102.872;2022-08-03T08:39:41;31.40;76.40
18575;DHT22;9417;16.484;102.872;2022-08-03T08:41:51;31.40;75.60
18575;DHT22;9417;16.484;102.872;2022-08-03T08:43:58;31.30;75.10
18575;DHT22;9417;16.484;102.872;2022-08-03T08:46:06;31.30;76.50
18575;DHT22;9417;16.484;102.872;2022-08-03T08:48:15;31.30;76.10
18575;DHT22;9417;16.484;102.872;2022-08-03T08:50:24;31.20;76.50
18575;DHT22;9417;16.484;102.872;2022-08-03T08:52:33;31.20;77.10
18575;DHT22;9417;16.484;102.872;2022-08-03T08:54:42;31.10;77.90
18575;DHT22;9417;16.484;102.872;2022-08-03T08:56:55;30.90;78.60
18575;DHT22;9417;16.484;102.872;2022-08-03T08:59:03;30.80;79.60
18575;DHT22;9417;16.484;102.872;2022-08-03T09:01:11;30.80;80.00
18575;DHT22;9417;16.484;102.872;2022-08-03T09:03:20;30.80;80.90
18575;DHT22;9417;16.484;102.872;2022-08-03T09:05:33;30.70;80.50
18575;DHT22;9417;16.484;102.872;2022-08-03T09:07:59;30.60;80.30
18575;DHT22;9417;16.484;102.872;2022-08-03T09:10:07;30.60;81.50
18575;DHT22;9417;16.484;102.872;2022-08-03T09:12:16;30.50;82.30
18575;DHT22;9417;16.484;102.872;2022-08-03T09:14:44;30.50;81.80
18575;DHT22;9417;16.484;102.872;2022-08-03T09:17:11;30.60;81.70
18575;DHT22;9417;16.484;102.872;2022-08-03T09:19:21;30.50;82.00
18575;DHT22;9417;16.484;102.872;2022-08-03T09:21:29;30.60;82.20
18575;DHT22;9417;16.484;102.872;2022-08-03T09:23:44;30.60;82.00
18575;DHT22;9417;16.484;102.872;2022-08-03T09:26:06;30.60;82.00
18575;DHT22;9417;16.484;102.872;2022-08-03T09:28:14;30.70;82.00
18575;DHT22;9417;16.484;102.872;2022-08-03T09:30:43;30.60;81.50
18575;DHT22;9417;16.484;102.872;2022-08-03T09:32:51;30.60;79.80
18575;DHT22;9417;16.484;102.872;2022-08-03T09:35:08;30.60;79.60
18575;DHT22;9417;16.484;102.872;2022-08-03T09:37:17;30.60;78.30
18575;DHT22;9417;16.484;102.872;2022-08-03T09:39:45;30.60;78.40
18575;DHT22;9417;16.484;102.872;2022-08-03T09:42:05;30.60;77.90
18575;DHT22;9417;16.484;102.872;2022-08-03T09:44:13;30.60;77.80
18575;DHT22;9417;16.484;102.872;2022-08-03T09:46:28;30.60;77.20
18575;DHT22;9417;16.484;102.872;2022-08-03T09:48:37;30.60;77.30
18575;DHT22;9417;16.484;102.872;2022-08-03T09:50:50;30.50;77.00
18575;DHT22;9417;16.484;102.872;2022-08-03T09:53:17;30.20;77.00
18575;DHT22;9417;16.484;102.872;2022-08-03T09:55:25;30.00;78.00
18575;DHT22;9417;16.484;102.872;2022-08-03T09:57:52;29.90;78.10
18575;DHT22;9417;16.484;102.872;2022-08-03T10:00:11;29.70;78.70
18575;DHT22;9417;16.484;102.872;2022-08-03T10:02:22;29.60;78.40
18575;DHT22;9417;16.484;102.872;2022-08-03T10:04:30;29.40;78.80
18575;DHT22;9417;16.484;102.872;2022-08-03T10:06:39;29.10;77.90
18575;DHT22;9417;16.484;102.872;2022-08-03T10:08:46;29.00;79.50
18575;DHT22;9417;16.484;102.872;2022-08-03T10:11:10;28.90;80.10
18575;DHT22;9417;16.484;102.872;2022-08-03T10:13:18;28.70;80.20
18575;DHT22;9417;16.484;102.872;2022-08-03T10:15:26;28.50;81.40
18575;DHT22;9417;16.484;102.872;2022-08-03T10:17:54;28.40;83.40
18575;DHT22;9417;16.484;102.872;2022-08-03T10:20:03;28.20;85.60
18575;DHT22;9417;16.484;102.872;2022-08-03T10:22:14;28.00;87.20
18575;DHT22;9417;16.484;102.872;2022-08-03T10:24:24;27.70;90.20
18575;DHT22;9417;16.484;102.872;2022-08-03T10:26:33;27.40;91.70
18575;DHT22;9417;16.484;102.872;2022-08-03T10:28:47;27.20;93.10
18575;DHT22;9417;16.484;102.872;2022-08-03T10:30:56;27.00;94.00
18575;DHT22;9417;16.484;102.872;2022-08-03T10:33:06;27.00;94.60
18575;DHT22;9417;16.484;102.872;2022-08-03T10:35:37;27.00;94.20
18575;DHT22;9417;16.484;102.872;2022-08-03T10:37:51;27.10;93.70
18575;DHT22;9417;16.484;102.872;2022-08-03T10:40:00;27.20;92.70
18575;DHT22;9417;16.484;102.872;2022-08-03T11:47:39;26.40;94.10
18575;DHT22;9417;16.484;102.872;2022-08-03T11:49:56;26.40;93.00
18575;DHT22;9417;16.484;102.872;2022-08-03T11:52:05;26.50;93.50
18575;DHT22;9417;16.484;102.872;2022-08-03T11:54:13;26.50;93.90
18575;DHT22;9417;16.484;102.872;2022-08-03T11:56:21;26.60;94.10
18575;DHT22;9417;16.484;102.872;2022-08-03T11:58:29;26.60;94.00
18575;DHT22;9417;16.484;102.872;2022-08-03T12:01:04;26.60;94.00
18575;DHT22;9417;16.484;102.872;2022-08-03T12:03:14;26.50;93.80
18575;DHT22;9417;16.484;102.872;2022-08-03T12:05:31;26.50;94.20
18575;DHT22;9417;16.484;102.872;2022-08-03T12:07:45;26.60;94.40
18575;DHT22;9417;16.484;102.872;2022-08-03T12:10:10;26.50;94.20
18575;DHT22;9417;16.484;102.872;2022-08-03T12:12:17;26.50;94.10
18575;DHT22;9417;16.484;102.872;2022-08-03T12:14:28;26.50;94.30
18575;DHT22;9417;16.484;102.872;2022-08-03T12:16:54;26.40;94.40
18575;DHT22;9417;16.484;102.872;2022-08-03T12:19:04;26.40;94.80
18575;DHT22;9417;16.484;102.872;2022-08-03T12:21:12;26.40;94.80
18575;DHT22;9417;16.484;102.872;2022-08-03T12:23:20;26.40;94.90
18575;DHT22;9417;16.484;102.872;2022-08-03T12:25:27;26.40;95.00
18575;DHT22;9417;16.484;102.872;2022-08-03T12:27:42;26.40;95.10
18575;DHT22;9417;16.484;102.872;2022-08-03T12:29:51;26.30;95.10
18575;DHT22;9417;16.484;102.872;2022-08-03T12:32:02;26.30;95.50
18575;DHT22;9417;16.484;102.872;2022-08-03T12:34:11;26.30;95.70
18575;DHT22;9417;16.484;102.872;2022-08-03T12:36:19;26.30;95.90
18575;DHT22;9417;16.484;102.872;2022-08-03T12:38:26;26.30;95.90
18575;DHT22;9417;16.484;102.872;2022-08-03T12:40:33;26.30;96.00
18575;DHT22;9417;16.484;102.872;2022-08-03T12:42:40;26.30;96.20
18575;DHT22;9417;16.484;102.872;2022-08-03T12:44:47;26.40;96.40
18575;DHT22;9417;16.484;102.872;2022-08-03T12:46:59;26.40;96.40
18575;DHT22;9417;16.484;102.872;2022-08-03T12:49:10;26.30;96.20
18575;DHT22;9417;16.484;102.872;2022-08-03T12:51:19;26.30;96.30
18575;DHT22;9417;16.484;102.872;2022-08-03T12:53:28;26.30;96.30
18575;DHT22;9417;16.484;102.872;2022-08-03T12:55:36;26.40;96.20
18575;DHT22;9417;16.484;102.872;2022-08-03T12:58:05;26.40;96.10
18575;DHT22;9417;16.484;102.872;2022-08-03T13:00:21;26.40;96.10
18575;DHT22;9417;16.484;102.872;2022-08-03T13:02:33;26.50;96.30
18575;DHT22;9417;16.484;102.872;2022-08-03T13:04:43;26.50;96.30
18575;DHT22;9417;16.484;102.872;2022-08-03T13:06:57;26.50;96.20
18575;DHT22;9417;16.484;102.872;2022-08-03T13:09:06;26.50;96.20
18575;DHT22;9417;16.484;102.872;2022-08-03T13:11:21;26.40;96.60
18575;DHT22;9417;16.484;102.872;2022-08-03T13:13:49;26.50;96.70
18575;DHT22;9417;16.484;102.872;2022-08-03T13:15:56;26.40;96.80
18575;DHT22;9417;16.484;102.872;2022-08-03T13:18:04;26.40;96.90
18575;DHT22;9417;16.484;102.872;2022-08-03T13:20:13;26.40;97.10
18575;DHT22;9417;16.484;102.872;2022-08-03T13:22:21;26.40;97.10
18575;DHT22;9417;16.484;102.872;2022-08-03T13:24:29;26.50;97.20
18575;DHT22;9417;16.484;102.872;2022-08-03T13:26:37;26.50;97.10
18575;DHT22;9417;16.484;102.872;2022-08-03T13:28:44;26.40;97.10
18575;DHT22;9417;16.484;102.872;2022-08-03T13:30:51;26.40;97.20
18575;DHT22;9417;16.484;102.872;2022-08-03T13:32:58;26.40;97.20
18575;DHT22;9417;16.484;102.872;2022-08-03T13:35:07;26.40;97.30
18575;DHT22;9417;16.484;102.872;2022-08-03T13:37:20;26.50;97.50
18575;DHT22;9417;16.484;102.872;2022-08-03T13:39:28;26.50;97.40
18575;DHT22;9417;16.484;102.872;2022-08-03T13:41:55;26.50;97.00
18575;DHT22;9417;16.484;102.872;2022-08-03T13:44:03;26.50;96.80
18575;DHT22;9417;16.484;102.872;2022-08-03T13:46:30;26.50;96.60
18575;DHT22;9417;16.484;102.872;2022-08-03T13:48:38;26.60;96.70
18575;DHT22;9417;16.484;102.872;2022-08-03T13:50:46;26.60;97.00
18575;DHT22;9417;16.484;102.872;2022-08-03T13:52:55;26.60;97.10
18575;DHT22;9417;16.484;102.872;2022-08-03T13:55:03;26.60;97.20
18575;DHT22;9417;16.484;102.872;2022-08-03T13:57:10;26.50;97.40
18575;DHT22;9417;16.484;102.872;2022-08-03T13:59:38;26.50;97.40
18575;DHT22;9417;16.484;102.872;2022-08-03T14:01:45;26.50;97.60
18575;DHT22;9417;16.484;102.872;2022-08-03T14:03:58;26.50;97.70
18575;DHT22;9417;16.484;102.872;2022-08-03T14:06:05;26.60;97.80
18575;DHT22;9417;16.484;102.872;2022-08-03T14:08:14;26.50;97.70
18575;DHT22;9417;16.484;102.872;2022-08-03T14:10:22;26.50;97.80
18575;DHT22;9417;16.484;102.872;2022-08-03T14:12:29;26.50;97.80
18575;DHT22;9417;16.484;102.872;2022-08-03T14:14:36;26.50;97.80
18575;DHT22;9417;16.484;102.872;2022-08-03T14:16:50;26.50;97.90
18575;DHT22;9417;16.484;102.872;2022-08-03T14:18:59;26.50;98.00
18575;DHT22;9417;16.484;102.872;2022-08-03T14:21:07;26.50;98.00
18575;DHT22;9417;16.484;102.872;2022-08-03T14:23:16;26.50;98.00
18575;DHT22;9417;16.484;102.872;2022-08-03T14:25:24;26.50;97.90
18575;DHT22;9417;16.484;102.872;2022-08-03T14:27:46;26.60;97.90
18575;DHT22;9417;16.484;102.872;2022-08-03T14:29:53;26.60;97.90
18575;DHT22;9417;16.484;102.872;2022-08-03T14:32:04;26.50;97.80
18575;DHT22;9417;16.484;102.872;2022-08-03T14:34:15;26.50;97.80
18575;DHT22;9417;16.484;102.872;2022-08-03T14:36:22;26.60;97.80
18575;DHT22;9417;16.484;102.872;2022-08-03T14:38:31;26.60;97.80